KFKL/FKL METAR and TAF weather

Enter ICAO airport designator
Station Type Date Time Source
KFKL METAR 2021/09/28 17:17 UTC NOAA

KFKL 281717Z AUTO 31007KT 280V360 10SM SCT027 SCT034 21/14 A2996 RMK AO2


Station Type Date Time Source
KFKL Decoded METAR 2021/09/28 17:17 UTC NOAA

Franklin, Venango Regional Airport, PA, United States (KFKL) 41-23N 079-52W
Sep 28, 2021 - 01:17 PM EDT / 2021.09.28 1717 UTC
Wind: from the NW (310 degrees) at 8 MPH (7 KT) (direction variable):0
Visibility: 10 mile(s):0
Sky conditions: partly cloudy
Temperature: 69 F (21 C)
Dew Point: 57 F (14 C)
Relative Humidity: 64%
Pressure (altimeter): 29.96 in. Hg (1014 hPa)
ob: KFKL 281717Z AUTO 31007KT 280V360 10SM SCT027 SCT034 21/14 A2996 RMK AO2
cycle: 17

Station Type Date Time Source
KFKL TAF 2021/09/28 18:24 UTC NOAA

TAF KFKL 281722Z 2818/2918 34006KT P6SM SCT035
FM290000 33004KT P6SM FEW150
TEMPO 2909/2912 3SM BR

Example: see airport list